Main page
METAR-TAF:

METAR-TAF

Airports :

Prince Said Ibrahim International Airport

Moroni, Comoros

latitude: 11-32S, longitude: 043-16E, elevation: 29 m

Current weather observation

The report was made 53 minutes ago, at 21:00 UTC
Wind 8 kt from the East/Southeast
Temperature 25°C
Humidity 79%
Pressure 1017 hPa
Visibility 10 km or more
Few clouds at a height of 2000 ft

METAR: FMCH 172100Z 11008KT 9999 FEW020 25/21 Q1017 NOSIG

Time: 00:53 (21:53 UTC)

Forecast

The report was made 4 hours and 53 minutes ago, at 17:00 UTC
Forecast valid from 17 at 18 UTC to 18 at 24 UTC
Wind 3 kt from the East
Visibility 10 km or more
Few clouds at a height of 2000 ft
Scattered clouds at a height of 3000 ft
Becoming
from 18 at 04 UTC to 18 at 07 UTC
Wind 12 kt from the South/Southwest
Becoming
from 18 at 16 UTC to 18 at 18 UTC
Wind 3 kt from the East/Southeast

TAF: FMCH 171700Z 1718/1824 10003KT 9999 FEW020 SCT030 BECMG 1804/1807 20012KT BECMG 1816/1818 12003KT

Weather observations and forecasts of more than 4000 airports (METAR and TAF reports).

The available stations are represented by yellow and red dots on the map.

Hover mouse over dot to see the name of the station.

Then click to see weather observations and forecasts.

To change the map : click on the green buttons with a black cross to zoom in, on the green button with a dash to zoom out, or on the green arrows for adjacent maps.


METAR-TAF: